sensor_id;sensor_type;location;lat;lon;timestamp;P1;durP1;ratioP1;P2;durP2;ratioP2
42430;SDS011;71905;47.466;19.024;2024-02-21T00:01:07;6.35;;;4.10;;
42430;SDS011;71905;47.466;19.024;2024-02-21T00:03:35;6.28;;;3.72;;
42430;SDS011;71905;47.466;19.024;2024-02-21T00:06:03;3.67;;;3.10;;
42430;SDS011;71905;47.466;19.024;2024-02-21T00:08:34;5.15;;;3.20;;
42430;SDS011;71905;47.466;19.024;2024-02-21T00:11:02;5.85;;;3.03;;
42430;SDS011;71905;47.466;19.024;2024-02-21T00:13:30;4.60;;;2.88;;
42430;SDS011;71905;47.466;19.024;2024-02-21T00:16:01;4.90;;;3.00;;
42430;SDS011;71905;47.466;19.024;2024-02-21T00:18:29;6.38;;;3.00;;
42430;SDS011;71905;47.466;19.024;2024-02-21T00:20:57;5.50;;;2.42;;
42430;SDS011;71905;47.466;19.024;2024-02-21T00:23:25;3.63;;;2.80;;
42430;SDS011;71905;47.466;19.024;2024-02-21T00:25:53;5.68;;;2.65;;
42430;SDS011;71905;47.466;19.024;2024-02-21T00:28:21;5.22;;;2.70;;
42430;SDS011;71905;47.466;19.024;2024-02-21T00:30:49;3.95;;;2.15;;
42430;SDS011;71905;47.466;19.024;2024-02-21T00:33:18;4.45;;;2.47;;
42430;SDS011;71905;47.466;19.024;2024-02-21T00:35:46;4.43;;;2.22;;
42430;SDS011;71905;47.466;19.024;2024-02-21T00:38:14;4.72;;;2.13;;
42430;SDS011;71905;47.466;19.024;2024-02-21T00:40:42;3.38;;;2.10;;
42430;SDS011;71905;47.466;19.024;2024-02-21T00:43:10;6.75;;;2.45;;
42430;SDS011;71905;47.466;19.024;2024-02-21T00:45:38;3.65;;;2.10;;
42430;SDS011;71905;47.466;19.024;2024-02-21T00:48:06;3.40;;;2.00;;
42430;SDS011;71905;47.466;19.024;2024-02-21T00:50:36;3.90;;;1.90;;
42430;SDS011;71905;47.466;19.024;2024-02-21T00:53:04;6.18;;;1.75;;
42430;SDS011;71905;47.466;19.024;2024-02-21T00:55:33;3.63;;;1.90;;
42430;SDS011;71905;47.466;19.024;2024-02-21T00:58:02;3.92;;;1.83;;
42430;SDS011;71905;47.466;19.024;2024-02-21T01:00:30;4.50;;;1.90;;
42430;SDS011;71905;47.466;19.024;2024-02-21T01:02:58;5.78;;;1.77;;
42430;SDS011;71905;47.466;19.024;2024-02-21T01:05:26;3.38;;;1.70;;
42430;SDS011;71905;47.466;19.024;2024-02-21T01:07:57;4.63;;;2.05;;
42430;SDS011;71905;47.466;19.024;2024-02-21T01:10:25;4.32;;;1.95;;
42430;SDS011;71905;47.466;19.024;2024-02-21T01:12:53;3.85;;;1.80;;
42430;SDS011;71905;47.466;19.024;2024-02-21T01:15:21;9.63;;;1.70;;
42430;SDS011;71905;47.466;19.024;2024-02-21T01:17:48;5.93;;;1.88;;
42430;SDS011;71905;47.466;19.024;2024-02-21T01:20:21;4.88;;;1.58;;
42430;SDS011;71905;47.466;19.024;2024-02-21T01:22:49;3.72;;;1.60;;
42430;SDS011;71905;47.466;19.024;2024-02-21T01:25:19;3.50;;;1.77;;
42430;SDS011;71905;47.466;19.024;2024-02-21T01:27:47;3.58;;;1.70;;
42430;SDS011;71905;47.466;19.024;2024-02-21T01:30:15;4.78;;;1.50;;
42430;SDS011;71905;47.466;19.024;2024-02-21T01:32:43;5.10;;;1.63;;
42430;SDS011;71905;47.466;19.024;2024-02-21T01:35:11;5.68;;;1.60;;
42430;SDS011;71905;47.466;19.024;2024-02-21T01:37:39;3.78;;;1.60;;
42430;SDS011;71905;47.466;19.024;2024-02-21T01:40:08;3.30;;;1.80;;
42430;SDS011;71905;47.466;19.024;2024-02-21T01:42:39;4.63;;;2.08;;
42430;SDS011;71905;47.466;19.024;2024-02-21T01:45:07;3.55;;;1.80;;
42430;SDS011;71905;47.466;19.024;2024-02-21T01:47:36;5.07;;;2.10;;
42430;SDS011;71905;47.466;19.024;2024-02-21T01:50:05;4.68;;;1.80;;
42430;SDS011;71905;47.466;19.024;2024-02-21T01:52:34;4.45;;;1.52;;
42430;SDS011;71905;47.466;19.024;2024-02-21T01:55:03;5.20;;;1.83;;
42430;SDS011;71905;47.466;19.024;2024-02-21T01:57:32;4.75;;;1.88;;
42430;SDS011;71905;47.466;19.024;2024-02-21T02:00:02;3.40;;;1.80;;
42430;SDS011;71905;47.466;19.024;2024-02-21T02:02:36;5.57;;;2.28;;
42430;SDS011;71905;47.466;19.024;2024-02-21T02:05:07;6.25;;;2.20;;
42430;SDS011;71905;47.466;19.024;2024-02-21T02:07:35;4.05;;;1.88;;
42430;SDS011;71905;47.466;19.024;2024-02-21T02:10:05;5.38;;;2.35;;
42430;SDS011;71905;47.466;19.024;2024-02-21T02:12:34;6.72;;;2.17;;
42430;SDS011;71905;47.466;19.024;2024-02-21T02:15:03;5.30;;;1.95;;
42430;SDS011;71905;47.466;19.024;2024-02-21T02:17:32;5.88;;;3.33;;
42430;SDS011;71905;47.466;19.024;2024-02-21T02:20:00;6.05;;;2.30;;
42430;SDS011;71905;47.466;19.024;2024-02-21T02:22:28;6.47;;;2.80;;
42430;SDS011;71905;47.466;19.024;2024-02-21T02:25:01;7.43;;;2.47;;
42430;SDS011;71905;47.466;19.024;2024-02-21T02:27:31;5.70;;;2.20;;
42430;SDS011;71905;47.466;19.024;2024-02-21T02:29:59;6.50;;;2.42;;
42430;SDS011;71905;47.466;19.024;2024-02-21T02:32:27;5.97;;;2.45;;
42430;SDS011;71905;47.466;19.024;2024-02-21T02:34:56;6.45;;;2.53;;
42430;SDS011;71905;47.466;19.024;2024-02-21T02:37:24;5.72;;;2.35;;
42430;SDS011;71905;47.466;19.024;2024-02-21T02:39:51;7.03;;;2.90;;
42430;SDS011;71905;47.466;19.024;2024-02-21T02:42:21;6.43;;;2.30;;
42430;SDS011;71905;47.466;19.024;2024-02-21T02:44:49;6.63;;;2.40;;
42430;SDS011;71905;47.466;19.024;2024-02-21T02:47:17;6.55;;;2.42;;
42430;SDS011;71905;47.466;19.024;2024-02-21T02:49:45;6.13;;;2.50;;
42430;SDS011;71905;47.466;19.024;2024-02-21T02:52:19;6.78;;;2.50;;
42430;SDS011;71905;47.466;19.024;2024-02-21T02:54:47;9.40;;;3.17;;
42430;SDS011;71905;47.466;19.024;2024-02-21T02:57:18;7.47;;;2.70;;
42430;SDS011;71905;47.466;19.024;2024-02-21T02:59:48;8.07;;;2.60;;
42430;SDS011;71905;47.466;19.024;2024-02-21T03:02:17;7.40;;;2.38;;
42430;SDS011;71905;47.466;19.024;2024-02-21T03:04:45;6.05;;;2.58;;
42430;SDS011;71905;47.466;19.024;2024-02-21T03:07:13;6.32;;;2.60;;
42430;SDS011;71905;47.466;19.024;2024-02-21T03:09:42;6.28;;;2.55;;
42430;SDS011;71905;47.466;19.024;2024-02-21T03:12:10;8.73;;;2.95;;
42430;SDS011;71905;47.466;19.024;2024-02-21T03:14:38;7.85;;;2.83;;
42430;SDS011;71905;47.466;19.024;2024-02-21T03:17:08;5.78;;;2.60;;
42430;SDS011;71905;47.466;19.024;2024-02-21T03:19:36;7.15;;;2.72;;
42430;SDS011;71905;47.466;19.024;2024-02-21T03:22:04;8.75;;;3.33;;
42430;SDS011;71905;47.466;19.024;2024-02-21T03:24:32;6.82;;;3.05;;
42430;SDS011;71905;47.466;19.024;2024-02-21T03:27:00;9.70;;;3.10;;
42430;SDS011;71905;47.466;19.024;2024-02-21T03:29:28;8.00;;;3.45;;
42430;SDS011;71905;47.466;19.024;2024-02-21T03:31:56;7.50;;;3.15;;
42430;SDS011;71905;47.466;19.024;2024-02-21T03:34:26;6.90;;;2.95;;
42430;SDS011;71905;47.466;19.024;2024-02-21T03:36:54;9.68;;;3.72;;
42430;SDS011;71905;47.466;19.024;2024-02-21T03:39:22;7.50;;;3.55;;
42430;SDS011;71905;47.466;19.024;2024-02-21T03:41:50;6.07;;;3.15;;
42430;SDS011;71905;47.466;19.024;2024-02-21T03:44:18;8.93;;;3.60;;
42430;SDS011;71905;47.466;19.024;2024-02-21T03:46:46;7.97;;;3.20;;
42430;SDS011;71905;47.466;19.024;2024-02-21T03:49:14;7.70;;;3.50;;
42430;SDS011;71905;47.466;19.024;2024-02-21T03:51:43;9.98;;;3.80;;
42430;SDS011;71905;47.466;19.024;2024-02-21T03:54:11;9.27;;;3.80;;
42430;SDS011;71905;47.466;19.024;2024-02-21T03:56:39;7.82;;;3.15;;
42430;SDS011;71905;47.466;19.024;2024-02-21T03:59:07;10.82;;;3.90;;
42430;SDS011;71905;47.466;19.024;2024-02-21T04:01:36;6.45;;;3.50;;
42430;SDS011;71905;47.466;19.024;2024-02-21T04:04:04;12.15;;;3.65;;
42430;SDS011;71905;47.466;19.024;2024-02-21T04:06:32;6.80;;;3.22;;
42430;SDS011;71905;47.466;19.024;2024-02-21T04:09:02;10.13;;;3.83;;
42430;SDS011;71905;47.466;19.024;2024-02-21T04:11:30;8.85;;;3.63;;
42430;SDS011;71905;47.466;19.024;2024-02-21T04:13:58;6.10;;;3.15;;
42430;SDS011;71905;47.466;19.024;2024-02-21T04:16:26;6.40;;;3.33;;
42430;SDS011;71905;47.466;19.024;2024-02-21T04:18:54;7.70;;;3.67;;
42430;SDS011;71905;47.466;19.024;2024-02-21T04:21:21;7.32;;;3.20;;
42430;SDS011;71905;47.466;19.024;2024-02-21T04:23:49;10.45;;;3.92;;
42430;SDS011;71905;47.466;19.024;2024-02-21T04:26:19;9.93;;;3.80;;
42430;SDS011;71905;47.466;19.024;2024-02-21T04:28:47;7.68;;;3.58;;
42430;SDS011;71905;47.466;19.024;2024-02-21T04:31:15;8.40;;;3.67;;
42430;SDS011;71905;47.466;19.024;2024-02-21T04:33:43;7.35;;;3.50;;
42430;SDS011;71905;47.466;19.024;2024-02-21T04:36:11;8.35;;;3.65;;
42430;SDS011;71905;47.466;19.024;2024-02-21T04:38:39;8.30;;;3.90;;
42430;SDS011;71905;47.466;19.024;2024-02-21T04:41:07;8.05;;;4.10;;
42430;SDS011;71905;47.466;19.024;2024-02-21T04:43:37;8.48;;;3.70;;
42430;SDS011;71905;47.466;19.024;2024-02-21T04:46:05;7.43;;;4.00;;
42430;SDS011;71905;47.466;19.024;2024-02-21T04:48:33;10.98;;;4.25;;
42430;SDS011;71905;47.466;19.024;2024-02-21T04:51:01;10.23;;;4.10;;
42430;SDS011;71905;47.466;19.024;2024-02-21T04:53:29;8.57;;;3.97;;
42430;SDS011;71905;47.466;19.024;2024-02-21T04:55:57;8.18;;;3.80;;
42430;SDS011;71905;47.466;19.024;2024-02-21T04:58:25;10.38;;;4.07;;
42430;SDS011;71905;47.466;19.024;2024-02-21T05:00:54;11.75;;;5.43;;
42430;SDS011;71905;47.466;19.024;2024-02-21T05:03:23;9.15;;;4.65;;
42430;SDS011;71905;47.466;19.024;2024-02-21T05:05:51;7.80;;;3.97;;
42430;SDS011;71905;47.466;19.024;2024-02-21T05:08:19;9.15;;;4.00;;
42430;SDS011;71905;47.466;19.024;2024-02-21T05:10:47;10.98;;;4.32;;
42430;SDS011;71905;47.466;19.024;2024-02-21T05:13:15;7.28;;;3.83;;
42430;SDS011;71905;47.466;19.024;2024-02-21T05:15:43;7.72;;;4.55;;
42430;SDS011;71905;47.466;19.024;2024-02-21T05:18:12;10.15;;;4.72;;
42430;SDS011;71905;47.466;19.024;2024-02-21T05:20:41;8.70;;;4.05;;
42430;SDS011;71905;47.466;19.024;2024-02-21T05:23:09;8.50;;;4.15;;
42430;SDS011;71905;47.466;19.024;2024-02-21T05:25:37;7.63;;;3.95;;
42430;SDS011;71905;47.466;19.024;2024-02-21T05:28:05;10.05;;;4.50;;
42430;SDS011;71905;47.466;19.024;2024-02-21T05:30:33;7.97;;;4.25;;
42430;SDS011;71905;47.466;19.024;2024-02-21T05:33:03;7.55;;;3.92;;
42430;SDS011;71905;47.466;19.024;2024-02-21T05:35:34;8.38;;;4.10;;
42430;SDS011;71905;47.466;19.024;2024-02-21T05:38:03;6.57;;;3.58;;
42430;SDS011;71905;47.466;19.024;2024-02-21T05:40:33;7.72;;;4.35;;
42430;SDS011;71905;47.466;19.024;2024-02-21T05:43:01;8.98;;;4.78;;
42430;SDS011;71905;47.466;19.024;2024-02-21T05:45:29;11.10;;;3.83;;
42430;SDS011;71905;47.466;19.024;2024-02-21T05:47:57;7.35;;;4.30;;
42430;SDS011;71905;47.466;19.024;2024-02-21T05:50:25;8.45;;;4.13;;
42430;SDS011;71905;47.466;19.024;2024-02-21T05:52:56;6.85;;;3.63;;
42430;SDS011;71905;47.466;19.024;2024-02-21T05:55:24;8.75;;;3.78;;
42430;SDS011;71905;47.466;19.024;2024-02-21T05:57:53;6.63;;;3.67;;
42430;SDS011;71905;47.466;19.024;2024-02-21T06:00:21;9.70;;;4.20;;
42430;SDS011;71905;47.466;19.024;2024-02-21T06:02:49;10.38;;;4.15;;
42430;SDS011;71905;47.466;19.024;2024-02-21T06:05:17;8.50;;;3.90;;
42430;SDS011;71905;47.466;19.024;2024-02-21T06:07:45;8.32;;;3.75;;
42430;SDS011;71905;47.466;19.024;2024-02-21T06:10:14;10.10;;;3.78;;
42430;SDS011;71905;47.466;19.024;2024-02-21T06:12:43;12.70;;;4.53;;
42430;SDS011;71905;47.466;19.024;2024-02-21T06:15:11;13.25;;;3.97;;
42430;SDS011;71905;47.466;19.024;2024-02-21T06:17:39;12.75;;;3.80;;
42430;SDS011;71905;47.466;19.024;2024-02-21T06:20:07;10.48;;;4.38;;
42430;SDS011;71905;47.466;19.024;2024-02-21T06:22:36;10.40;;;3.42;;
42430;SDS011;71905;47.466;19.024;2024-02-21T06:25:04;10.38;;;3.88;;
42430;SDS011;71905;47.466;19.024;2024-02-21T06:27:34;9.73;;;3.85;;
42430;SDS011;71905;47.466;19.024;2024-02-21T06:30:02;13.02;;;4.38;;
42430;SDS011;71905;47.466;19.024;2024-02-21T06:32:30;10.63;;;3.97;;
42430;SDS011;71905;47.466;19.024;2024-02-21T06:34:58;10.57;;;3.60;;
42430;SDS011;71905;47.466;19.024;2024-02-21T06:37:28;10.85;;;3.67;;
42430;SDS011;71905;47.466;19.024;2024-02-21T06:39:57;9.98;;;3.67;;
42430;SDS011;71905;47.466;19.024;2024-02-21T06:42:25;9.10;;;3.03;;
42430;SDS011;71905;47.466;19.024;2024-02-21T06:44:54;11.75;;;3.85;;
42430;SDS011;71905;47.466;19.024;2024-02-21T06:47:23;10.80;;;3.90;;
42430;SDS011;71905;47.466;19.024;2024-02-21T06:49:51;8.00;;;3.03;;
42430;SDS011;71905;47.466;19.024;2024-02-21T06:52:19;10.18;;;3.42;;
42430;SDS011;71905;47.466;19.024;2024-02-21T06:54:47;10.45;;;3.63;;
42430;SDS011;71905;47.466;19.024;2024-02-21T06:57:15;10.68;;;4.00;;
42430;SDS011;71905;47.466;19.024;2024-02-21T06:59:43;10.90;;;3.80;;
42430;SDS011;71905;47.466;19.024;2024-02-21T07:02:12;12.10;;;3.60;;
42430;SDS011;71905;47.466;19.024;2024-02-21T07:04:41;11.80;;;4.25;;
42430;SDS011;71905;47.466;19.024;2024-02-21T07:07:10;9.70;;;3.05;;
42430;SDS011;71905;47.466;19.024;2024-02-21T07:09:39;12.32;;;3.67;;
42430;SDS011;71905;47.466;19.024;2024-02-21T07:12:07;9.13;;;3.45;;
42430;SDS011;71905;47.466;19.024;2024-02-21T07:14:35;9.88;;;3.58;;
42430;SDS011;71905;47.466;19.024;2024-02-21T07:17:03;11.35;;;3.40;;
42430;SDS011;71905;47.466;19.024;2024-02-21T07:19:33;7.95;;;3.60;;
42430;SDS011;71905;47.466;19.024;2024-02-21T07:22:02;10.00;;;3.40;;
42430;SDS011;71905;47.466;19.024;2024-02-21T07:24:30;10.07;;;3.30;;
42430;SDS011;71905;47.466;19.024;2024-02-21T07:26:59;11.13;;;3.45;;
42430;SDS011;71905;47.466;19.024;2024-02-21T07:29:31;11.23;;;3.38;;
42430;SDS011;71905;47.466;19.024;2024-02-21T07:31:59;12.50;;;3.25;;
42430;SDS011;71905;47.466;19.024;2024-02-21T07:34:27;7.93;;;2.80;;
42430;SDS011;71905;47.466;19.024;2024-02-21T07:36:56;7.03;;;3.00;;
42430;SDS011;71905;47.466;19.024;2024-02-21T07:39:24;8.25;;;2.40;;
42430;SDS011;71905;47.466;19.024;2024-02-21T07:41:52;11.82;;;3.55;;
42430;SDS011;71905;47.466;19.024;2024-02-21T07:44:20;14.45;;;3.20;;
42430;SDS011;71905;47.466;19.024;2024-02-21T07:46:49;9.88;;;2.90;;
42430;SDS011;71905;47.466;19.024;2024-02-21T07:49:17;9.52;;;3.20;;
42430;SDS011;71905;47.466;19.024;2024-02-21T07:51:45;10.23;;;3.35;;
42430;SDS011;71905;47.466;19.024;2024-02-21T07:54:14;8.10;;;2.58;;
42430;SDS011;71905;47.466;19.024;2024-02-21T07:56:45;8.38;;;2.80;;
42430;SDS011;71905;47.466;19.024;2024-02-21T07:59:13;11.32;;;3.50;;
42430;SDS011;71905;47.466;19.024;2024-02-21T08:01:41;7.38;;;2.78;;
42430;SDS011;71905;47.466;19.024;2024-02-21T08:04:11;9.35;;;3.05;;
42430;SDS011;71905;47.466;19.024;2024-02-21T08:06:39;7.07;;;2.38;;
42430;SDS011;71905;47.466;19.024;2024-02-21T08:09:07;9.48;;;3.20;;
42430;SDS011;71905;47.466;19.024;2024-02-21T08:11:36;10.18;;;3.13;;
42430;SDS011;71905;47.466;19.024;2024-02-21T08:14:05;11.25;;;3.42;;
42430;SDS011;71905;47.466;19.024;2024-02-21T08:16:34;10.40;;;3.67;;
42430;SDS011;71905;47.466;19.024;2024-02-21T08:19:02;10.23;;;2.95;;
42430;SDS011;71905;47.466;19.024;2024-02-21T08:21:30;7.38;;;2.72;;
42430;SDS011;71905;47.466;19.024;2024-02-21T08:23:59;7.88;;;2.90;;
42430;SDS011;71905;47.466;19.024;2024-02-21T08:26:26;9.98;;;3.75;;
42430;SDS011;71905;47.466;19.024;2024-02-21T08:28:58;9.80;;;3.15;;
42430;SDS011;71905;47.466;19.024;2024-02-21T08:31:27;9.70;;;3.15;;
42430;SDS011;71905;47.466;19.024;2024-02-21T08:34:00;7.50;;;2.78;;
42430;SDS011;71905;47.466;19.024;2024-02-21T08:36:30;11.30;;;3.25;;
42430;SDS011;71905;47.466;19.024;2024-02-21T08:38:59;6.95;;;2.67;;
42430;SDS011;71905;47.466;19.024;2024-02-21T08:41:30;11.02;;;2.90;;
42430;SDS011;71905;47.466;19.024;2024-02-21T08:44:19;10.52;;;3.03;;
42430;SDS011;71905;47.466;19.024;2024-02-21T08:46:46;8.63;;;2.50;;
42430;SDS011;71905;47.466;19.024;2024-02-21T08:49:15;11.73;;;2.97;;
42430;SDS011;71905;47.466;19.024;2024-02-21T08:51:43;12.93;;;3.00;;
42430;SDS011;71905;47.466;19.024;2024-02-21T08:54:12;10.02;;;3.38;;
42430;SDS011;71905;47.466;19.024;2024-02-21T08:56:40;8.75;;;2.80;;
42430;SDS011;71905;47.466;19.024;2024-02-21T08:59:08;8.32;;;3.05;;
42430;SDS011;71905;47.466;19.024;2024-02-21T09:01:37;9.23;;;2.70;;
42430;SDS011;71905;47.466;19.024;2024-02-21T09:04:05;8.63;;;2.85;;
42430;SDS011;71905;47.466;19.024;2024-02-21T09:06:34;7.50;;;2.75;;
42430;SDS011;71905;47.466;19.024;2024-02-21T09:09:05;10.13;;;2.78;;
42430;SDS011;71905;47.466;19.024;2024-02-21T09:11:34;10.18;;;2.97;;
42430;SDS011;71905;47.466;19.024;2024-02-21T09:14:02;11.48;;;3.08;;
42430;SDS011;71905;47.466;19.024;2024-02-21T09:16:31;8.65;;;3.00;;
42430;SDS011;71905;47.466;19.024;2024-02-21T09:19:01;9.55;;;3.30;;
42430;SDS011;71905;47.466;19.024;2024-02-21T09:21:29;8.27;;;3.10;;
42430;SDS011;71905;47.466;19.024;2024-02-21T09:23:57;12.02;;;3.38;;
42430;SDS011;71905;47.466;19.024;2024-02-21T09:26:26;11.52;;;2.95;;
42430;SDS011;71905;47.466;19.024;2024-02-21T09:28:54;11.40;;;3.15;;
42430;SDS011;71905;47.466;19.024;2024-02-21T09:31:22;10.40;;;2.50;;
42430;SDS011;71905;47.466;19.024;2024-02-21T09:33:52;9.63;;;2.65;;
42430;SDS011;71905;47.466;19.024;2024-02-21T09:36:22;9.93;;;3.10;;
42430;SDS011;71905;47.466;19.024;2024-02-21T09:38:50;8.32;;;2.92;;
42430;SDS011;71905;47.466;19.024;2024-02-21T09:41:19;8.10;;;2.60;;
42430;SDS011;71905;47.466;19.024;2024-02-21T09:43:52;8.30;;;2.95;;
42430;SDS011;71905;47.466;19.024;2024-02-21T09:46:24;8.70;;;2.63;;
42430;SDS011;71905;47.466;19.024;2024-02-21T09:49:04;9.50;;;3.30;;
42430;SDS011;71905;47.466;19.024;2024-02-21T09:51:43;12.93;;;3.90;;
42430;SDS011;71905;47.466;19.024;2024-02-21T09:54:12;11.77;;;3.00;;
42430;SDS011;71905;47.466;19.024;2024-02-21T09:56:44;10.45;;;3.17;;
42430;SDS011;71905;47.466;19.024;2024-02-21T09:59:13;11.40;;;3.20;;
42430;SDS011;71905;47.466;19.024;2024-02-21T10:01:43;11.27;;;3.05;;
42430;SDS011;71905;47.466;19.024;2024-02-21T10:04:13;8.90;;;2.72;;
42430;SDS011;71905;47.466;19.024;2024-02-21T10:06:43;9.35;;;3.38;;
42430;SDS011;71905;47.466;19.024;2024-02-21T10:09:19;8.02;;;2.58;;
42430;SDS011;71905;47.466;19.024;2024-02-21T10:11:48;11.80;;;3.22;;
42430;SDS011;71905;47.466;19.024;2024-02-21T10:14:17;9.68;;;3.55;;
42430;SDS011;71905;47.466;19.024;2024-02-21T10:16:45;9.75;;;3.40;;
42430;SDS011;71905;47.466;19.024;2024-02-21T10:19:18;10.15;;;2.97;;
42430;SDS011;71905;47.466;19.024;2024-02-21T10:22:01;9.15;;;3.15;;
42430;SDS011;71905;47.466;19.024;2024-02-21T10:24:31;7.22;;;3.22;;
42430;SDS011;71905;47.466;19.024;2024-02-21T10:27:01;8.23;;;2.97;;
42430;SDS011;71905;47.466;19.024;2024-02-21T10:29:30;10.65;;;3.10;;
42430;SDS011;71905;47.466;19.024;2024-02-21T10:32:05;8.57;;;3.30;;
42430;SDS011;71905;47.466;19.024;2024-02-21T10:34:34;8.55;;;3.20;;
42430;SDS011;71905;47.466;19.024;2024-02-21T10:37:04;11.43;;;3.28;;
42430;SDS011;71905;47.466;19.024;2024-02-21T10:39:34;8.77;;;3.15;;
42430;SDS011;71905;47.466;19.024;2024-02-21T10:42:03;12.07;;;3.40;;
42430;SDS011;71905;47.466;19.024;2024-02-21T10:44:32;9.23;;;3.50;;
42430;SDS011;71905;47.466;19.024;2024-02-21T10:47:01;13.57;;;3.50;;
42430;SDS011;71905;47.466;19.024;2024-02-21T10:49:36;11.18;;;3.78;;
42430;SDS011;71905;47.466;19.024;2024-02-21T10:52:11;9.25;;;3.08;;
42430;SDS011;71905;47.466;19.024;2024-02-21T10:54:45;14.75;;;3.90;;
42430;SDS011;71905;47.466;19.024;2024-02-21T10:57:17;10.10;;;3.42;;
42430;SDS011;71905;47.466;19.024;2024-02-21T10:59:46;12.43;;;3.60;;
42430;SDS011;71905;47.466;19.024;2024-02-21T11:02:16;11.05;;;3.92;;
42430;SDS011;71905;47.466;19.024;2024-02-21T11:04:45;10.55;;;3.92;;
42430;SDS011;71905;47.466;19.024;2024-02-21T11:07:15;13.30;;;3.70;;
42430;SDS011;71905;47.466;19.024;2024-02-21T11:09:50;11.70;;;4.10;;
42430;SDS011;71905;47.466;19.024;2024-02-21T11:12:19;11.35;;;3.60;;
42430;SDS011;71905;47.466;19.024;2024-02-21T11:14:49;12.15;;;3.95;;
42430;SDS011;71905;47.466;19.024;2024-02-21T11:17:17;10.45;;;3.40;;
42430;SDS011;71905;47.466;19.024;2024-02-21T11:19:46;11.20;;;4.03;;
42430;SDS011;71905;47.466;19.024;2024-02-21T11:22:16;12.98;;;3.75;;
42430;SDS011;71905;47.466;19.024;2024-02-21T11:24:44;12.18;;;3.92;;
42430;SDS011;71905;47.466;19.024;2024-02-21T11:27:14;10.98;;;3.70;;
42430;SDS011;71905;47.466;19.024;2024-02-21T11:29:43;11.57;;;3.30;;
42430;SDS011;71905;47.466;19.024;2024-02-21T11:32:13;11.35;;;3.42;;
42430;SDS011;71905;47.466;19.024;2024-02-21T11:34:52;8.38;;;3.40;;
42430;SDS011;71905;47.466;19.024;2024-02-21T11:37:23;9.27;;;3.15;;
42430;SDS011;71905;47.466;19.024;2024-02-21T11:39:53;11.68;;;3.05;;
42430;SDS011;71905;47.466;19.024;2024-02-21T11:42:21;13.82;;;3.78;;
42430;SDS011;71905;47.466;19.024;2024-02-21T11:44:49;11.05;;;3.35;;
42430;SDS011;71905;47.466;19.024;2024-02-21T11:47:17;8.70;;;3.15;;
42430;SDS011;71905;47.466;19.024;2024-02-21T11:49:45;9.80;;;3.47;;
42430;SDS011;71905;47.466;19.024;2024-02-21T11:52:16;9.45;;;2.90;;
42430;SDS011;71905;47.466;19.024;2024-02-21T11:54:48;10.93;;;3.40;;
42430;SDS011;71905;47.466;19.024;2024-02-21T11:57:16;11.00;;;3.75;;
42430;SDS011;71905;47.466;19.024;2024-02-21T11:59:45;11.07;;;3.80;;
42430;SDS011;71905;47.466;19.024;2024-02-21T12:02:14;10.52;;;3.47;;
42430;SDS011;71905;47.466;19.024;2024-02-21T12:04:43;12.20;;;3.53;;
42430;SDS011;71905;47.466;19.024;2024-02-21T12:07:11;9.25;;;3.33;;
42430;SDS011;71905;47.466;19.024;2024-02-21T12:09:41;10.20;;;3.45;;
42430;SDS011;71905;47.466;19.024;2024-02-21T12:12:11;8.45;;;3.13;;
42430;SDS011;71905;47.466;19.024;2024-02-21T12:14:39;10.75;;;3.17;;
42430;SDS011;71905;47.466;19.024;2024-02-21T12:17:07;10.13;;;3.30;;
42430;SDS011;71905;47.466;19.024;2024-02-21T12:19:35;11.05;;;2.90;;
42430;SDS011;71905;47.466;19.024;2024-02-21T12:22:03;8.48;;;2.95;;
42430;SDS011;71905;47.466;19.024;2024-02-21T12:24:33;8.30;;;2.60;;
42430;SDS011;71905;47.466;19.024;2024-02-21T12:27:02;8.48;;;2.72;;
42430;SDS011;71905;47.466;19.024;2024-02-21T12:29:33;7.63;;;2.78;;
42430;SDS011;71905;47.466;19.024;2024-02-21T12:32:02;9.65;;;2.60;;
42430;SDS011;71905;47.466;19.024;2024-02-21T12:34:31;8.10;;;2.47;;
42430;SDS011;71905;47.466;19.024;2024-02-21T12:37:18;10.05;;;2.70;;
42430;SDS011;71905;47.466;19.024;2024-02-21T12:39:47;8.48;;;2.70;;
42430;SDS011;71905;47.466;19.024;2024-02-21T12:42:16;8.98;;;2.65;;
42430;SDS011;71905;47.466;19.024;2024-02-21T12:44:46;7.47;;;2.30;;
42430;SDS011;71905;47.466;19.024;2024-02-21T12:47:14;8.80;;;2.50;;
42430;SDS011;71905;47.466;19.024;2024-02-21T12:49:42;7.45;;;2.10;;
42430;SDS011;71905;47.466;19.024;2024-02-21T12:52:12;7.80;;;2.42;;
42430;SDS011;71905;47.466;19.024;2024-02-21T12:54:40;9.50;;;2.53;;
42430;SDS011;71905;47.466;19.024;2024-02-21T12:57:09;9.93;;;2.90;;
42430;SDS011;71905;47.466;19.024;2024-02-21T12:59:37;7.57;;;2.55;;
42430;SDS011;71905;47.466;19.024;2024-02-21T13:02:06;10.10;;;2.85;;
42430;SDS011;71905;47.466;19.024;2024-02-21T13:04:35;8.45;;;2.67;;
42430;SDS011;71905;47.466;19.024;2024-02-21T13:07:07;10.90;;;2.85;;
42430;SDS011;71905;47.466;19.024;2024-02-21T13:09:35;7.05;;;2.50;;
42430;SDS011;71905;47.466;19.024;2024-02-21T13:12:03;8.15;;;2.85;;
42430;SDS011;71905;47.466;19.024;2024-02-21T13:14:32;6.82;;;2.47;;
42430;SDS011;71905;47.466;19.024;2024-02-21T13:17:01;9.90;;;2.78;;
42430;SDS011;71905;47.466;19.024;2024-02-21T13:19:31;9.32;;;2.83;;
42430;SDS011;71905;47.466;19.024;2024-02-21T13:21:59;12.32;;;3.05;;
42430;SDS011;71905;47.466;19.024;2024-02-21T13:24:29;10.82;;;3.03;;
42430;SDS011;71905;47.466;19.024;2024-02-21T13:26:57;12.38;;;3.30;;
42430;SDS011;71905;47.466;19.024;2024-02-21T13:29:25;9.23;;;3.03;;
42430;SDS011;71905;47.466;19.024;2024-02-21T13:31:53;9.77;;;2.78;;
42430;SDS011;71905;47.466;19.024;2024-02-21T13:34:22;8.18;;;2.60;;
42430;SDS011;71905;47.466;19.024;2024-02-21T13:36:51;9.77;;;2.53;;
42430;SDS011;71905;47.466;19.024;2024-02-21T13:39:19;8.13;;;2.83;;
42430;SDS011;71905;47.466;19.024;2024-02-21T13:41:47;11.00;;;2.65;;
42430;SDS011;71905;47.466;19.024;2024-02-21T13:44:15;9.05;;;2.67;;
42430;SDS011;71905;47.466;19.024;2024-02-21T13:46:43;11.60;;;3.20;;
42430;SDS011;71905;47.466;19.024;2024-02-21T13:49:12;11.05;;;2.95;;
42430;SDS011;71905;47.466;19.024;2024-02-21T13:51:40;11.90;;;3.08;;
42430;SDS011;71905;47.466;19.024;2024-02-21T13:54:12;9.93;;;2.70;;
42430;SDS011;71905;47.466;19.024;2024-02-21T13:56:43;13.27;;;3.17;;
42430;SDS011;71905;47.466;19.024;2024-02-21T13:59:11;10.98;;;3.00;;
42430;SDS011;71905;47.466;19.024;2024-02-21T14:01:40;8.55;;;2.50;;
42430;SDS011;71905;47.466;19.024;2024-02-21T14:04:08;8.95;;;2.60;;
42430;SDS011;71905;47.466;19.024;2024-02-21T14:06:36;14.20;;;2.58;;
42430;SDS011;71905;47.466;19.024;2024-02-21T14:09:09;6.95;;;2.72;;
42430;SDS011;71905;47.466;19.024;2024-02-21T14:11:39;9.65;;;2.35;;
42430;SDS011;71905;47.466;19.024;2024-02-21T14:14:08;11.05;;;2.92;;
42430;SDS011;71905;47.466;19.024;2024-02-21T14:16:36;11.75;;;2.92;;
42430;SDS011;71905;47.466;19.024;2024-02-21T14:19:04;9.65;;;2.83;;
42430;SDS011;71905;47.466;19.024;2024-02-21T14:21:33;10.25;;;2.80;;
42430;SDS011;71905;47.466;19.024;2024-02-21T14:24:03;8.85;;;3.28;;
42430;SDS011;71905;47.466;19.024;2024-02-21T14:26:33;11.57;;;2.55;;
42430;SDS011;71905;47.466;19.024;2024-02-21T14:29:02;10.88;;;2.80;;
42430;SDS011;71905;47.466;19.024;2024-02-21T14:31:31;8.40;;;2.05;;
42430;SDS011;71905;47.466;19.024;2024-02-21T14:33:59;9.98;;;2.30;;
42430;SDS011;71905;47.466;19.024;2024-02-21T14:36:29;10.18;;;2.67;;
42430;SDS011;71905;47.466;19.024;2024-02-21T14:38:57;6.63;;;1.90;;
42430;SDS011;71905;47.466;19.024;2024-02-21T14:41:25;8.60;;;2.63;;